Terminal Aerodrome Forecast
Issued by NWS

Home | Current Version | Previous Version | Text Only | Print | Product List | Glossary On
Versions: 1 2 3 4 5 6 7 8 9 10 11 12 13 14 15
000
FTUS43 KGRB 281100 RRA
TAFAUW
TAF
KAUW 281145Z 2812/2912 27006KT P6SM SCT012 BKN040
      TEMPO 2812/2816 BKN012
     FM290000 30007KT P6SM SCT070
     FM290200 34008KT P6SM BKN250=

USA.gov is the U.S. government's official web portal to all federal, state and local government web resources and services.